createdAt,value
2019-01-06T00:01:31.155Z,2.27
2019-01-06T00:04:16.562Z,1.90
2019-01-06T00:07:01.959Z,2.30
2019-01-06T00:09:40.006Z,2.10
2019-01-06T00:12:09.039Z,2.70
2019-01-06T00:14:38.126Z,2.23
2019-01-06T00:17:16.263Z,2.67
2019-01-06T00:19:45.327Z,2.50
2019-01-06T00:22:30.943Z,2.23
2019-01-06T00:25:16.195Z,1.80
2019-01-06T00:28:01.579Z,2.77
2019-01-06T00:30:33.452Z,2.10
2019-01-06T00:33:05.250Z,1.80
2019-01-06T00:35:40.558Z,2.47
2019-01-06T00:38:26.007Z,3.00
2019-01-06T00:40:58.069Z,2.23
2019-01-06T00:43:27.103Z,2.10
2019-01-06T00:45:56.165Z,3.00
2019-01-06T00:48:41.786Z,2.50
2019-01-06T00:51:16.863Z,2.13
2019-01-06T00:53:45.899Z,2.10
2019-01-06T00:56:17.919Z,2.90
2019-01-06T00:58:55.978Z,1.90
2019-01-06T01:01:43.123Z,1.83
2019-01-06T01:04:27.410Z,1.90
2019-01-06T01:07:05.087Z,3.00
2019-01-06T01:09:43.206Z,2.60
2019-01-06T01:12:12.267Z,2.20
2019-01-06T01:14:50.106Z,1.80
2019-01-06T01:17:19.158Z,1.77
2019-01-06T01:19:48.196Z,1.67
2019-01-06T01:22:33.834Z,3.07
2019-01-06T01:25:02.875Z,2.20
2019-01-06T01:27:31.935Z,1.97
2019-01-06T01:30:06.608Z,2.00
2019-01-06T01:32:41.900Z,1.80
2019-01-06T01:35:10.943Z,1.63
2019-01-06T01:37:39.985Z,1.93
2019-01-06T01:40:11.998Z,1.80
2019-01-06T01:42:57.445Z,1.83
2019-01-06T01:45:38.412Z,1.77
2019-01-06T01:48:10.204Z,1.53
2019-01-06T01:50:39.239Z,1.60
2019-01-06T01:53:11.135Z,2.03
2019-01-06T01:55:56.450Z,1.73
2019-01-06T01:58:42.043Z,1.27
2019-01-06T02:01:11.084Z,2.17
2019-01-06T02:03:40.148Z,1.97
2019-01-06T02:06:09.176Z,2.10
2019-01-06T02:08:53.201Z,1.40
2019-01-06T02:11:38.751Z,1.70
2019-01-06T02:14:25.963Z,1.60
2019-01-06T02:17:11.486Z,1.70
2019-01-06T02:19:49.831Z,1.67
2019-01-06T02:22:24.742Z,1.80
2019-01-06T02:24:59.530Z,1.83
2019-01-06T02:27:45.071Z,1.73
2019-01-06T02:30:30.792Z,1.90
2019-01-06T02:33:16.425Z,1.67
2019-01-06T02:35:54.663Z,1.63
2019-01-06T02:38:35.620Z,1.27
2019-01-06T02:41:07.550Z,1.40
2019-01-06T02:43:45.786Z,1.83
2019-01-06T02:46:31.387Z,1.37
2019-01-06T02:49:00.449Z,1.80
2019-01-06T02:51:35.697Z,1.67
2019-01-06T02:54:17.085Z,1.50
2019-01-06T02:56:49.103Z,1.77
2019-01-06T02:59:24.246Z,1.57
2019-01-06T03:01:53.261Z,2.50
2019-01-06T03:04:22.322Z,1.83
2019-01-06T03:06:51.354Z,1.90
2019-01-06T03:09:29.559Z,1.57
2019-01-06T03:11:58.594Z,1.50
2019-01-06T03:14:43.973Z,1.87
2019-01-06T03:17:13.004Z,1.30
2019-01-06T03:20:00.221Z,1.60
2019-01-06T03:22:47.543Z,1.77
2019-01-06T03:25:32.937Z,1.50
2019-01-06T03:28:07.631Z,1.33
2019-01-06T03:30:36.659Z,1.70
2019-01-06T03:33:08.284Z,1.70
2019-01-06T03:35:52.400Z,1.67
2019-01-06T03:38:21.459Z,1.70
2019-01-06T03:40:59.326Z,1.30
2019-01-06T03:43:40.070Z,1.30
2019-01-06T03:46:09.110Z,1.80
2019-01-06T03:48:54.563Z,1.50
2019-01-06T03:51:35.652Z,1.60
2019-01-06T03:54:21.196Z,1.33
2019-01-06T03:56:59.246Z,1.07
2019-01-06T03:59:28.312Z,1.43
2019-01-06T04:02:06.551Z,1.50
2019-01-06T04:04:35.677Z,1.73
2019-01-06T04:07:07.426Z,1.70
2019-01-06T04:09:52.967Z,1.67
2019-01-06T04:12:27.803Z,1.57
2019-01-06T04:14:59.797Z,1.10
2019-01-06T04:17:35.515Z,1.43
2019-01-06T04:20:10.700Z,1.30
2019-01-06T04:22:39.736Z,1.43
2019-01-06T04:25:14.710Z,1.30
2019-01-06T04:27:43.737Z,1.70
2019-01-06T04:30:18.652Z,1.23
2019-01-06T04:32:59.793Z,1.50
2019-01-06T04:35:31.572Z,2.13
2019-01-06T04:38:00.559Z,1.27
2019-01-06T04:40:29.620Z,1.40
2019-01-06T04:42:58.651Z,1.70
2019-01-06T04:45:44.028Z,1.40
2019-01-06T04:48:21.866Z,1.40
2019-01-06T04:51:05.950Z,1.07
2019-01-06T04:53:50.041Z,1.30
2019-01-06T04:56:24.917Z,1.20
2019-01-06T04:59:10.551Z,1.50
2019-01-06T05:01:45.843Z,1.30
2019-01-06T05:04:32.884Z,1.47
2019-01-06T05:07:04.894Z,1.30
2019-01-06T05:09:33.943Z,1.53
2019-01-06T05:12:02.993Z,1.50
2019-01-06T05:14:48.636Z,1.00
2019-01-06T05:17:17.694Z,1.00
2019-01-06T05:19:46.725Z,1.33
2019-01-06T05:22:21.812Z,1.50
2019-01-06T05:25:07.648Z,1.63
2019-01-06T05:27:48.683Z,1.30
2019-01-06T05:30:26.672Z,1.67
2019-01-06T05:32:55.733Z,1.33
2019-01-06T05:35:36.803Z,1.60
2019-01-06T05:38:08.580Z,1.37
2019-01-06T05:40:37.613Z,1.27
2019-01-06T05:43:18.739Z,1.07
2019-01-06T05:46:04.412Z,1.30
2019-01-06T05:48:48.560Z,1.20
2019-01-06T05:51:33.739Z,1.00
2019-01-06T05:54:11.532Z,1.23
2019-01-06T05:56:56.795Z,1.00
2019-01-06T05:59:25.825Z,1.10
2019-01-06T06:02:13.075Z,1.30
2019-01-06T06:04:42.111Z,1.10
2019-01-06T06:07:29.952Z,1.10
2019-01-06T06:10:15.343Z,1.07
2019-01-06T06:12:50.278Z,1.23
2019-01-06T06:15:25.146Z,1.10
2019-01-06T06:17:54.276Z,1.33
2019-01-06T06:20:29.354Z,1.57
2019-01-06T06:23:04.260Z,1.23
2019-01-06T06:25:39.539Z,1.30
2019-01-06T06:28:17.947Z,1.27
2019-01-06T06:31:03.379Z,0.97
2019-01-06T06:33:35.399Z,1.10
2019-01-06T06:36:19.527Z,1.37
2019-01-06T06:38:48.663Z,0.93
2019-01-06T06:41:17.715Z,1.13
2019-01-06T06:43:46.776Z,1.20
2019-01-06T06:46:15.803Z,1.00
2019-01-06T06:48:44.861Z,1.00
2019-01-06T06:51:30.415Z,1.37
2019-01-06T06:54:02.460Z,1.30
2019-01-06T06:56:31.487Z,1.27
2019-01-06T06:59:17.143Z,1.40
2019-01-06T07:02:22.798Z,1.27
2019-01-06T07:04:51.837Z,1.27
2019-01-06T07:07:29.800Z,1.00
2019-01-06T07:10:04.328Z,1.37
2019-01-06T07:12:36.065Z,1.43
2019-01-06T07:15:08.404Z,1.07
2019-01-06T07:17:47.851Z,1.00
2019-01-06T07:20:23.914Z,1.30
2019-01-06T07:22:52.966Z,0.93
2019-01-06T07:25:28.451Z,0.90
2019-01-06T07:28:12.892Z,1.00
2019-01-06T07:30:48.468Z,1.00
2019-01-06T07:33:17.527Z,1.10
2019-01-06T07:35:46.555Z,1.83
2019-01-06T07:38:18.192Z,1.33
2019-01-06T07:40:53.480Z,2.17
2019-01-06T07:43:38.876Z,1.30
2019-01-06T07:46:16.682Z,1.10
2019-01-06T07:48:58.023Z,1.10
2019-01-06T07:51:33.243Z,1.43
2019-01-06T07:54:18.859Z,1.30
2019-01-06T07:56:50.700Z,1.00
2019-01-06T07:59:22.794Z,1.17
2019-01-06T08:02:06.679Z,1.27
2019-01-06T08:04:52.080Z,1.40
2019-01-06T08:07:23.989Z,1.03
2019-01-06T08:09:58.882Z,1.20
2019-01-06T08:12:30.842Z,1.13
2019-01-06T08:15:02.864Z,1.33
2019-01-06T08:17:48.781Z,1.40
2019-01-06T08:20:34.250Z,1.07
2019-01-06T08:23:15.116Z,1.50
2019-01-06T08:25:46.964Z,1.00
2019-01-06T08:28:15.999Z,1.10
2019-01-06T08:30:47.758Z,1.73
2019-01-06T08:33:22.753Z,1.33
2019-01-06T08:36:08.348Z,1.50
2019-01-06T08:38:49.549Z,1.27
2019-01-06T08:41:35.001Z,1.50
2019-01-06T08:44:12.971Z,1.20
2019-01-06T08:46:54.314Z,1.47
2019-01-06T08:49:26.050Z,1.50
2019-01-06T08:52:04.142Z,1.50
2019-01-06T08:54:36.159Z,1.53
2019-01-06T08:57:05.286Z,2.07
2019-01-06T08:59:34.314Z,2.00
2019-01-06T09:02:06.174Z,1.20
2019-01-06T09:04:35.192Z,1.50
2019-01-06T09:07:06.967Z,1.40
2019-01-06T09:09:45.518Z,1.60
2019-01-06T09:12:12.384Z,1.83
2019-01-06T09:14:41.420Z,2.00
2019-01-06T09:17:10.481Z,1.53
2019-01-06T09:19:50.007Z,1.63
2019-01-06T09:22:16.022Z,1.57
2019-01-06T09:25:01.593Z,1.87
2019-01-06T09:27:42.480Z,1.30
2019-01-06T09:30:20.946Z,1.63
2019-01-06T09:32:52.984Z,1.97
2019-01-06T09:35:24.864Z,1.57
2019-01-06T09:38:02.863Z,1.80
2019-01-06T09:40:32.005Z,1.30
2019-01-06T09:43:17.432Z,1.23
2019-01-06T09:45:52.500Z,1.80
2019-01-06T09:48:21.544Z,1.10
2019-01-06T09:51:02.879Z,1.30
2019-01-06T09:53:37.744Z,1.30
2019-01-06T09:56:21.761Z,1.43
2019-01-06T09:59:07.375Z,1.30
2019-01-06T10:01:42.043Z,1.20
2019-01-06T10:04:34.945Z,1.30
2019-01-06T10:07:18.200Z,1.20
2019-01-06T10:09:53.154Z,1.30
2019-01-06T10:12:28.307Z,1.00
2019-01-06T10:14:57.341Z,1.10
2019-01-06T10:17:29.373Z,1.40
2019-01-06T10:20:04.429Z,1.60
2019-01-06T10:22:42.600Z,1.30
2019-01-06T10:25:28.019Z,1.30
2019-01-06T10:28:06.211Z,1.63
2019-01-06T10:30:52.138Z,1.30
2019-01-06T10:33:21.325Z,1.40
2019-01-06T10:35:53.083Z,1.30
2019-01-06T10:38:33.973Z,1.20
2019-01-06T10:41:03.015Z,1.30
2019-01-06T10:43:32.067Z,1.43
2019-01-06T10:46:19.196Z,1.30
2019-01-06T10:48:57.088Z,1.43
2019-01-06T10:51:26.191Z,1.47
2019-01-06T10:54:11.731Z,1.70
2019-01-06T10:56:43.490Z,2.10
2019-01-06T10:59:12.570Z,1.60
2019-01-06T11:01:57.948Z,2.03
2019-01-06T11:04:35.848Z,4.07
2019-01-06T11:07:16.607Z,3.20
2019-01-06T11:10:04.017Z,2.57
2019-01-06T11:12:49.414Z,2.73
2019-01-06T11:15:33.783Z,2.30
2019-01-06T11:18:19.223Z,2.53
2019-01-06T11:20:54.290Z,2.30
2019-01-06T11:23:23.329Z,2.67
2019-01-06T11:25:58.530Z,1.80
2019-01-06T11:28:33.579Z,1.97
2019-01-06T11:31:17.981Z,1.90
2019-01-06T11:33:47.013Z,2.13
2019-01-06T11:36:22.039Z,1.87
2019-01-06T11:39:00.819Z,2.20
2019-01-06T11:41:45.285Z,1.93
2019-01-06T11:44:30.635Z,1.70
2019-01-06T11:47:08.667Z,1.50
2019-01-06T11:49:54.163Z,2.27
2019-01-06T11:52:39.559Z,2.07
2019-01-06T11:55:24.834Z,2.20
2019-01-06T11:58:10.042Z,2.40
2019-01-06T12:00:41.638Z,1.93
2019-01-06T12:03:28.998Z,2.17
2019-01-06T12:05:58.049Z,1.57
2019-01-06T12:08:41.868Z,2.07
2019-01-06T12:11:11.063Z,2.33
2019-01-06T12:13:43.220Z,1.77
2019-01-06T12:16:21.508Z,1.37
2019-01-06T12:19:02.531Z,2.27
2019-01-06T12:21:50.141Z,2.10
2019-01-06T12:24:19.304Z,2.30
2019-01-06T12:26:51.255Z,2.90
2019-01-06T12:29:20.296Z,2.60
2019-01-06T12:31:55.348Z,2.30
2019-01-06T12:34:40.800Z,2.53
2019-01-06T12:37:12.713Z,2.90
2019-01-06T12:39:56.798Z,2.50
2019-01-06T12:42:25.858Z,2.37
2019-01-06T12:44:57.864Z,2.30
2019-01-06T12:47:43.558Z,2.27
2019-01-06T12:50:21.646Z,2.23
2019-01-06T12:52:53.706Z,2.33
2019-01-06T12:55:22.777Z,2.43
2019-01-06T12:57:51.798Z,1.80
2019-01-06T13:00:20.854Z,2.30
2019-01-06T13:02:59.080Z,2.87
2019-01-06T13:05:43.250Z,2.13
2019-01-06T13:08:21.091Z,1.70
2019-01-06T13:11:06.557Z,2.43
2019-01-06T13:13:38.750Z,2.20
2019-01-06T13:16:17.087Z,2.00
2019-01-06T13:18:52.284Z,2.07
2019-01-06T13:21:27.295Z,2.90
2019-01-06T13:24:11.667Z,1.60
2019-01-06T13:26:56.124Z,1.30
2019-01-06T13:29:25.158Z,1.80
2019-01-06T13:32:12.706Z,2.00
2019-01-06T13:35:00.266Z,1.90
2019-01-06T13:37:31.923Z,1.60
2019-01-06T13:40:00.962Z,2.10
2019-01-06T13:42:30.015Z,1.90
2019-01-06T13:45:11.388Z,2.20
2019-01-06T13:47:57.282Z,1.47
2019-01-06T13:50:42.510Z,1.77
2019-01-06T13:53:24.128Z,2.23
2019-01-06T13:55:56.111Z,1.87
2019-01-06T13:58:30.859Z,1.47
2019-01-06T14:01:16.689Z,2.00
2019-01-06T14:03:54.767Z,1.90
2019-01-06T14:06:30.050Z,2.23
2019-01-06T14:09:15.621Z,1.40
2019-01-06T14:11:50.410Z,1.70
2019-01-06T14:14:36.137Z,1.70
2019-01-06T14:17:11.436Z,2.10
2019-01-06T14:19:40.502Z,1.37
2019-01-06T14:22:18.599Z,1.43
2019-01-06T14:24:59.969Z,1.40
2019-01-06T14:27:45.635Z,1.80
2019-01-06T14:30:30.004Z,1.60
2019-01-06T14:33:08.043Z,1.57
2019-01-06T14:35:52.615Z,1.77
2019-01-06T14:38:38.155Z,1.80
2019-01-06T14:41:07.185Z,2.40
2019-01-06T14:43:45.450Z,1.30
2019-01-06T14:46:23.355Z,1.63
2019-01-06T14:49:08.763Z,2.90
2019-01-06T14:51:37.802Z,1.80
2019-01-06T14:54:09.799Z,1.50
2019-01-06T14:56:41.785Z,2.00
2019-01-06T14:59:10.849Z,1.40
2019-01-06T15:01:55.248Z,1.50
2019-01-06T15:04:30.033Z,1.40
2019-01-06T15:07:11.095Z,1.77
2019-01-06T15:09:43.261Z,2.00
2019-01-06T15:12:28.755Z,1.70
2019-01-06T15:15:14.315Z,2.00
2019-01-06T15:17:59.473Z,1.73
2019-01-06T15:20:31.534Z,1.83
2019-01-06T15:23:00.577Z,1.43
2019-01-06T15:25:29.648Z,1.53
2019-01-06T15:28:01.764Z,1.60
2019-01-06T15:30:33.792Z,2.10
2019-01-06T15:33:17.731Z,1.40
2019-01-06T15:35:46.812Z,1.73
2019-01-06T15:38:15.928Z,1.67
2019-01-06T15:40:47.758Z,1.53
2019-01-06T15:43:20.859Z,2.07
2019-01-06T15:45:56.108Z,2.03
2019-01-06T15:48:27.947Z,1.80
2019-01-06T15:50:57.307Z,1.77
2019-01-06T15:53:26.329Z,2.20
2019-01-06T15:56:01.156Z,1.77
2019-01-06T15:58:45.748Z,1.90
2019-01-06T16:01:14.831Z,1.87
2019-01-06T16:03:43.854Z,1.30
2019-01-06T16:06:15.799Z,2.17
2019-01-06T16:08:54.873Z,1.67
2019-01-06T16:11:40.827Z,1.43
2019-01-06T16:14:22.883Z,2.10
2019-01-06T16:17:06.677Z,1.90
2019-01-06T16:19:50.745Z,1.90
2019-01-06T16:22:19.800Z,1.80
2019-01-06T16:25:00.936Z,1.80
2019-01-06T16:27:30.067Z,1.67
2019-01-06T16:30:05.013Z,2.10
2019-01-06T16:32:42.970Z,1.30
2019-01-06T16:35:12.025Z,1.70
2019-01-06T16:37:57.701Z,2.02
2019-01-06T16:40:35.782Z,1.30
2019-01-06T16:43:04.814Z,2.13
2019-01-06T16:45:52.437Z,1.67
2019-01-06T16:48:27.298Z,1.83
2019-01-06T16:51:05.570Z,1.67
2019-01-06T16:53:34.620Z,2.10
2019-01-06T16:56:09.603Z,1.77
2019-01-06T16:58:47.377Z,2.00
2019-01-06T17:01:22.436Z,2.00
2019-01-06T17:04:08.147Z,2.47
2019-01-06T17:06:52.492Z,2.10
2019-01-06T17:09:24.309Z,1.80
2019-01-06T17:12:02.499Z,1.90
2019-01-06T17:14:40.194Z,2.10
2019-01-06T17:17:09.250Z,2.30
2019-01-06T17:19:41.072Z,2.30
2019-01-06T17:22:26.771Z,2.27
2019-01-06T17:25:01.744Z,3.10
2019-01-06T17:27:39.722Z,2.30
2019-01-06T17:30:18.286Z,2.27
2019-01-06T17:32:56.385Z,2.00
2019-01-06T17:35:37.490Z,2.17
2019-01-06T17:38:12.747Z,2.63
2019-01-06T17:40:56.857Z,2.03
2019-01-06T17:43:42.123Z,2.60
2019-01-06T17:46:11.157Z,1.83
2019-01-06T17:48:45.932Z,2.00
2019-01-06T17:51:17.639Z,2.80
2019-01-06T17:53:52.862Z,1.97
2019-01-06T17:56:21.895Z,2.30
2019-01-06T17:59:02.939Z,2.30
2019-01-06T18:01:31.979Z,2.37
2019-01-06T18:04:03.606Z,2.50
2019-01-06T18:06:38.942Z,3.23
2019-01-06T18:09:24.864Z,2.90
2019-01-06T18:11:56.807Z,2.60
2019-01-06T18:14:42.299Z,3.03
2019-01-06T18:17:27.790Z,2.27
2019-01-06T18:20:13.204Z,3.50
2019-01-06T18:22:45.243Z,3.00
2019-01-06T18:25:26.286Z,3.07
2019-01-06T18:28:11.758Z,2.00
2019-01-06T18:30:49.762Z,2.70
2019-01-06T18:33:30.831Z,2.47
2019-01-06T18:35:59.871Z,2.23
2019-01-06T18:38:34.887Z,2.20
2019-01-06T18:41:06.658Z,2.60
2019-01-06T18:43:35.795Z,2.37
2019-01-06T18:46:04.828Z,2.87
2019-01-06T18:48:36.816Z,2.30
2019-01-06T18:51:08.703Z,3.03
2019-01-06T18:53:49.681Z,3.20
2019-01-06T18:56:18.754Z,2.80
2019-01-06T18:58:47.820Z,2.93
2019-01-06T19:01:31.947Z,3.10
2019-01-06T19:04:13.115Z,2.73
2019-01-06T19:06:45.347Z,2.70
2019-01-06T19:09:23.695Z,2.87
2019-01-06T19:11:58.466Z,2.80
2019-01-06T19:14:30.303Z,2.70
2019-01-06T19:17:15.643Z,3.10
2019-01-06T19:20:01.140Z,2.70
2019-01-06T19:22:30.562Z,2.47
2019-01-06T19:25:08.445Z,2.97
2019-01-06T19:27:43.228Z,2.77
2019-01-06T19:30:15.258Z,3.00
2019-01-06T19:32:44.296Z,2.60
2019-01-06T19:35:13.355Z,2.77
2019-01-06T19:37:51.684Z,2.53
2019-01-06T19:40:37.436Z,2.73
2019-01-06T19:43:09.035Z,2.33
2019-01-06T19:45:54.438Z,2.40
2019-01-06T19:48:23.702Z,2.50
2019-01-06T19:50:52.921Z,2.13
2019-01-06T19:53:38.722Z,3.07
2019-01-06T19:56:14.139Z,2.30
2019-01-06T19:58:49.184Z,3.23
2019-01-06T20:01:33.627Z,4.20
2019-01-06T20:04:02.973Z,2.70
2019-01-06T20:06:49.231Z,4.13
2019-01-06T20:09:18.735Z,3.20
2019-01-06T20:12:03.473Z,3.40
2019-01-06T20:14:49.771Z,7.07
2019-01-06T20:17:27.805Z,2.80
2019-01-06T20:20:04.206Z,2.40
2019-01-06T20:22:47.807Z,3.87
2019-01-06T20:25:23.128Z,2.63
2019-01-06T20:28:04.314Z,3.50
2019-01-06T20:30:33.375Z,2.90
2019-01-06T20:33:14.370Z,2.70
2019-01-06T20:36:00.118Z,2.90
2019-01-06T20:38:44.531Z,2.67
2019-01-06T20:41:25.675Z,2.47
2019-01-06T20:44:11.163Z,2.50
2019-01-06T20:46:56.909Z,2.77
2019-01-06T20:49:42.672Z,3.20
2019-01-06T20:52:11.727Z,2.87
2019-01-06T20:54:58.503Z,3.17
2019-01-06T20:57:45.918Z,3.20
2019-01-06T21:00:14.955Z,2.47
2019-01-06T21:02:44.018Z,3.10
2019-01-06T21:05:13.054Z,2.83
2019-01-06T21:07:42.119Z,2.63
2019-01-06T21:10:20.327Z,2.60
2019-01-06T21:12:52.365Z,2.30
2019-01-06T21:15:21.402Z,2.60
2019-01-06T21:18:07.050Z,3.10
2019-01-06T21:20:38.889Z,2.57
2019-01-06T21:23:24.342Z,2.77
2019-01-06T21:25:56.123Z,2.80
2019-01-06T21:28:40.158Z,2.70
2019-01-06T21:31:09.224Z,2.83
2019-01-06T21:33:49.979Z,2.10
2019-01-06T21:36:24.857Z,2.67
2019-01-06T21:38:53.965Z,2.60
2019-01-06T21:41:39.636Z,2.80
2019-01-06T21:44:17.848Z,3.53
2019-01-06T21:46:46.902Z,3.40
2019-01-06T21:49:21.929Z,2.03
2019-01-06T21:52:07.627Z,2.30
2019-01-06T21:54:54.778Z,2.00
2019-01-06T21:57:40.256Z,2.60
2019-01-06T22:00:10.357Z,3.10
2019-01-06T22:02:45.338Z,2.12
2019-01-06T22:05:17.151Z,2.00
2019-01-06T22:07:51.995Z,1.87
2019-01-06T22:10:23.967Z,2.30
2019-01-06T22:13:02.126Z,1.77
2019-01-06T22:15:47.490Z,3.00
2019-01-06T22:18:16.556Z,2.07
2019-01-06T22:20:51.623Z,2.47
2019-01-06T22:23:20.683Z,3.30
2019-01-06T22:25:55.553Z,1.80
2019-01-06T22:28:30.455Z,2.63
2019-01-06T22:31:14.423Z,2.07
2019-01-06T22:33:46.657Z,2.10
2019-01-06T22:36:21.823Z,2.97
2019-01-06T22:39:00.143Z,3.00
2019-01-06T22:41:41.387Z,2.20
2019-01-06T22:44:22.421Z,2.00
2019-01-06T22:47:08.016Z,2.10
2019-01-06T22:49:37.073Z,1.60
2019-01-06T22:52:22.523Z,2.87
2019-01-06T22:54:51.557Z,2.70
2019-01-06T22:57:29.602Z,3.00
2019-01-06T23:00:13.646Z,2.80
2019-01-06T23:02:48.396Z,2.53
2019-01-06T23:05:17.434Z,2.60
2019-01-06T23:08:03.156Z,2.20
2019-01-06T23:10:48.582Z,2.43
2019-01-06T23:13:17.649Z,2.47
2019-01-06T23:15:55.524Z,2.17
2019-01-06T23:18:24.591Z,1.80
2019-01-06T23:20:59.680Z,2.90
2019-01-06T23:23:37.317Z,2.50
2019-01-06T23:26:21.642Z,1.93
2019-01-06T23:28:59.914Z,2.80
2019-01-06T23:31:31.469Z,2.00
2019-01-06T23:34:06.118Z,2.37
2019-01-06T23:36:38.165Z,2.10
2019-01-06T23:39:26.119Z,2.10
2019-01-06T23:41:55.155Z,2.13
2019-01-06T23:44:29.959Z,2.03
2019-01-06T23:47:15.147Z,1.83
2019-01-06T23:50:00.991Z,2.00
2019-01-06T23:52:41.720Z,2.33
2019-01-06T23:55:27.023Z,1.93
2019-01-06T23:57:56.058Z,2.37
